createdAt,value
2018-12-13T00:01:11.483Z,90.83
2018-12-13T00:04:20.293Z,90.56
2018-12-13T00:07:26.232Z,92.34
2018-12-13T00:10:32.775Z,92.56
2018-12-13T00:13:39.602Z,92.40
2018-12-13T00:16:45.593Z,92.52
2018-12-13T00:19:51.474Z,92.64
2018-12-13T00:22:57.087Z,92.74
2018-12-13T00:26:03.124Z,91.89
2018-12-13T00:29:08.713Z,91.66
2018-12-13T00:32:14.310Z,91.15
2018-12-13T00:35:19.957Z,91.07
2018-12-13T00:38:25.931Z,90.59
2018-12-13T00:41:31.517Z,91.59
2018-12-13T00:44:37.164Z,91.08
2018-12-13T00:47:43.126Z,90.88
2018-12-13T00:50:49.288Z,91.39
2018-12-13T00:53:55.480Z,90.77
2018-12-13T00:57:01.412Z,90.36
2018-12-13T01:00:08.474Z,90.05
2018-12-13T01:03:14.382Z,91.75
2018-12-13T01:06:20.992Z,91.12
2018-12-13T01:09:27.329Z,92.19
2018-12-13T01:12:33.428Z,92.11
2018-12-13T01:15:39.302Z,91.20
2018-12-13T01:18:45.196Z,91.11
2018-12-13T01:21:50.789Z,91.42
2018-12-13T01:24:56.659Z,91.14
2018-12-13T01:28:03.024Z,91.73
2018-12-13T01:31:08.918Z,91.91
2018-12-13T01:34:14.796Z,91.57
2018-12-13T01:37:21.047Z,92.03
2018-12-13T01:40:26.916Z,92.59
2018-12-13T01:43:32.816Z,91.76
2018-12-13T01:46:40.995Z,92.73
2018-12-13T01:49:48.993Z,91.71
2018-12-13T01:52:56.580Z,91.83
2018-12-13T01:56:04.338Z,90.69
2018-12-13T01:59:11.884Z,91.59
2018-12-13T02:02:19.331Z,91.44
2018-12-13T02:05:26.294Z,92.79
2018-12-13T02:08:34.113Z,93.79
2018-12-13T02:11:41.276Z,93.46
2018-12-13T02:14:48.559Z,92.25
2018-12-13T02:17:55.863Z,91.87
2018-12-13T02:21:04.390Z,92.47
2018-12-13T02:24:11.378Z,92.13
2018-12-13T02:27:18.975Z,93.05
2018-12-13T02:30:26.458Z,93.32
2018-12-13T02:33:33.469Z,94.57
2018-12-13T02:36:40.090Z,94.90
2018-12-13T02:39:46.379Z,94.96
2018-12-13T02:42:52.254Z,92.64
2018-12-13T02:45:58.279Z,92.42
2018-12-13T02:49:10.543Z,92.41
2018-12-13T02:52:16.425Z,92.43
2018-12-13T02:55:22.316Z,91.86
2018-12-13T02:58:28.220Z,91.89
2018-12-13T03:01:33.809Z,91.28
2018-12-13T03:04:39.696Z,90.83
2018-12-13T03:07:45.619Z,91.52
2018-12-13T03:10:51.248Z,90.77
2018-12-13T03:13:57.058Z,89.73
2018-12-13T03:17:04.186Z,89.52
2018-12-13T03:20:10.504Z,89.20
2018-12-13T03:23:16.106Z,88.86
2018-12-13T03:26:22.658Z,88.60
2018-12-13T03:29:28.287Z,88.87
2018-12-13T03:32:34.162Z,88.01
2018-12-13T03:35:40.062Z,87.86
2018-12-13T03:38:45.644Z,88.67
2018-12-13T03:41:51.691Z,89.34
2018-12-13T03:44:57.610Z,90.42
2018-12-13T03:48:03.490Z,89.69
2018-12-13T03:51:09.529Z,89.27
2018-12-13T03:54:15.483Z,89.75
2018-12-13T03:57:21.370Z,89.05
2018-12-13T04:00:27.262Z,89.12
2018-12-13T04:03:33.141Z,89.79
2018-12-13T04:06:39.013Z,91.08
2018-12-13T04:09:44.627Z,90.50
2018-12-13T04:12:50.534Z,90.12
2018-12-13T04:15:56.195Z,89.70
2018-12-13T04:19:02.571Z,90.19
2018-12-13T04:22:09.060Z,89.42
2018-12-13T04:25:14.949Z,89.48
2018-12-13T04:28:20.815Z,90.06
2018-12-13T04:31:27.226Z,89.90
2018-12-13T04:34:33.141Z,90.18
2018-12-13T04:37:39.052Z,89.72
2018-12-13T04:40:44.932Z,89.81
2018-12-13T04:43:50.884Z,90.21
2018-12-13T04:46:58.773Z,90.70
2018-12-13T04:50:06.617Z,90.01
2018-12-13T04:53:12.760Z,90.81
2018-12-13T04:56:18.966Z,90.21
2018-12-13T04:59:24.922Z,90.86
2018-12-13T05:02:30.769Z,89.65
2018-12-13T05:05:36.848Z,91.17
2018-12-13T05:08:43.159Z,91.46
2018-12-13T05:11:48.788Z,91.24
2018-12-13T05:14:55.036Z,91.17
2018-12-13T05:18:00.919Z,90.39
2018-12-13T05:21:07.268Z,91.33
2018-12-13T05:24:13.462Z,90.73
2018-12-13T05:27:25.849Z,89.99
2018-12-13T05:30:33.182Z,92.09
2018-12-13T05:33:41.004Z,92.81
2018-12-13T05:36:46.662Z,91.65
2018-12-13T05:39:52.270Z,93.25
2018-12-13T05:42:57.846Z,92.11
2018-12-13T05:46:03.616Z,93.14
2018-12-13T05:49:09.566Z,91.70
2018-12-13T05:52:15.472Z,92.16
2018-12-13T05:55:21.395Z,91.71
2018-12-13T05:58:27.261Z,92.29
2018-12-13T06:01:39.582Z,91.08
2018-12-13T06:04:45.474Z,90.43
2018-12-13T06:07:54.884Z,91.24
2018-12-13T06:10:59.392Z,91.73
2018-12-13T06:14:05.286Z,89.68
2018-12-13T06:17:11.195Z,89.03
2018-12-13T06:20:17.159Z,91.00
2018-12-13T06:23:23.307Z,91.18
2018-12-13T06:26:29.196Z,93.24
2018-12-13T06:29:41.593Z,94.47
2018-12-13T06:32:42.760Z,93.46
2018-12-13T06:35:48.672Z,93.42
2018-12-13T06:38:54.713Z,92.91
2018-12-13T06:42:00.609Z,92.27
2018-12-13T06:45:08.261Z,92.18
2018-12-13T06:48:14.236Z,91.76
2018-12-13T06:51:20.348Z,93.36
2018-12-13T06:54:26.232Z,92.70
2018-12-13T06:57:32.111Z,90.73
2018-12-13T07:00:38.385Z,91.92
2018-12-13T07:03:44.280Z,91.83
2018-12-13T07:06:50.995Z,90.23
2018-12-13T07:09:57.037Z,89.34
2018-12-13T07:13:02.654Z,89.61
2018-12-13T07:16:08.313Z,90.38
2018-12-13T07:19:13.966Z,90.50
2018-12-13T07:22:19.597Z,91.79
2018-12-13T07:25:25.207Z,91.34
2018-12-13T07:28:30.879Z,91.51
2018-12-13T07:31:36.495Z,92.29
2018-12-13T07:34:42.098Z,91.11
2018-12-13T07:37:47.835Z,89.94
2018-12-13T07:40:54.010Z,88.89
2018-12-13T07:43:59.876Z,90.12
2018-12-13T07:47:05.815Z,90.96
2018-12-13T07:50:11.863Z,90.64
2018-12-13T07:53:17.809Z,89.24
2018-12-13T07:56:23.719Z,89.10
2018-12-13T07:59:29.592Z,89.95
2018-12-13T08:02:35.218Z,89.68
2018-12-13T08:05:40.833Z,89.58
2018-12-13T08:08:46.433Z,89.44
2018-12-13T08:11:52.327Z,88.92
2018-12-13T08:14:58.153Z,88.10
2018-12-13T08:18:03.740Z,89.13
2018-12-13T08:21:11.314Z,87.59
2018-12-13T08:24:17.188Z,87.94
2018-12-13T08:27:24.490Z,87.68
2018-12-13T08:30:30.392Z,87.18
2018-12-13T08:33:37.021Z,87.77
2018-12-13T08:36:42.617Z,86.92
2018-12-13T08:39:48.211Z,87.14
2018-12-13T08:42:54.462Z,88.50
2018-12-13T08:46:00.512Z,87.14
2018-12-13T08:49:07.174Z,89.12
2018-12-13T08:52:13.696Z,88.40
2018-12-13T08:55:19.588Z,89.25
2018-12-13T08:58:25.183Z,89.12
2018-12-13T09:01:31.060Z,88.26
2018-12-13T09:04:36.634Z,87.99
2018-12-13T09:07:42.242Z,89.09
2018-12-13T09:10:48.225Z,89.31
2018-12-13T09:13:53.844Z,87.67
2018-12-13T09:16:59.765Z,88.52
2018-12-13T09:20:07.202Z,88.79
2018-12-13T09:23:13.100Z,88.62
2018-12-13T09:26:19.277Z,87.04
2018-12-13T09:29:26.214Z,87.79
2018-12-13T09:32:32.115Z,87.56
2018-12-13T09:35:37.709Z,88.51
2018-12-13T09:38:43.923Z,88.33
2018-12-13T09:41:49.832Z,88.23
2018-12-13T09:44:55.869Z,87.62
2018-12-13T09:48:01.482Z,87.29
2018-12-13T09:51:07.117Z,87.46
2018-12-13T09:54:12.983Z,86.73
2018-12-13T09:57:19.354Z,86.30
2018-12-13T10:00:25.572Z,86.05
2018-12-13T10:03:31.623Z,86.15
2018-12-13T10:06:37.522Z,86.19
2018-12-13T10:09:43.407Z,85.77
2018-12-13T10:12:49.207Z,84.96
2018-12-13T10:15:55.388Z,85.63
2018-12-13T10:19:01.255Z,84.59
2018-12-13T10:22:11.612Z,84.97
2018-12-13T10:25:15.248Z,85.32
2018-12-13T10:28:21.497Z,85.53
2018-12-13T10:31:27.386Z,85.56
2018-12-13T10:34:32.981Z,84.65
2018-12-13T10:37:38.592Z,84.74
2018-12-13T10:40:44.440Z,85.93
2018-12-13T10:43:52.901Z,85.78
2018-12-13T10:46:59.248Z,84.86
2018-12-13T10:50:07.192Z,85.09
2018-12-13T10:53:13.069Z,85.73
2018-12-13T10:56:18.961Z,85.26
2018-12-13T10:59:24.769Z,85.40
2018-12-13T11:03:40.873Z,85.02
2018-12-13T11:06:46.741Z,85.27
2018-12-13T11:09:52.471Z,84.57
2018-12-13T11:12:58.114Z,84.89
2018-12-13T11:16:04.022Z,84.89
2018-12-13T11:19:09.668Z,84.62
2018-12-13T11:22:15.291Z,84.62
2018-12-13T11:25:21.275Z,84.86
2018-12-13T11:30:06.537Z,84.99
2018-12-13T11:33:13.580Z,84.04
2018-12-13T11:36:21.126Z,81.29
2018-12-13T11:39:27.066Z,81.55
2018-12-13T11:42:32.951Z,82.19
2018-12-13T11:45:38.997Z,81.88
2018-12-13T11:48:44.913Z,82.51
2018-12-13T11:51:50.767Z,82.62
2018-12-13T11:55:00.158Z,80.92
2018-12-13T11:58:13.389Z,79.76
2018-12-13T12:01:18.973Z,79.87
2018-12-13T12:04:25.153Z,80.51
2018-12-13T12:07:30.895Z,81.17
2018-12-13T12:10:36.511Z,78.64
2018-12-13T12:13:42.839Z,79.52
2018-12-13T12:16:48.700Z,79.04
2018-12-13T12:19:55.479Z,77.98
2018-12-13T12:23:01.354Z,78.47
2018-12-13T12:26:06.939Z,78.26
2018-12-13T12:29:13.873Z,78.58
2018-12-13T12:32:19.773Z,79.52
2018-12-13T12:35:25.382Z,79.15
2018-12-13T12:38:31.272Z,80.05
2018-12-13T12:41:36.988Z,81.72
2018-12-13T12:44:42.776Z,80.83
2018-12-13T12:47:48.381Z,80.63
2018-12-13T12:50:54.231Z,79.33
2018-12-13T12:53:59.844Z,79.75
2018-12-13T12:57:05.868Z,79.19
2018-12-13T13:00:12.217Z,80.60
2018-12-13T13:03:18.087Z,80.92
2018-12-13T13:06:23.671Z,79.77
2018-12-13T13:09:29.531Z,79.54
2018-12-13T13:12:35.532Z,81.09
2018-12-13T13:15:41.361Z,80.76
2018-12-13T13:18:47.360Z,81.41
2018-12-13T13:21:53.224Z,81.77
2018-12-13T13:24:59.116Z,81.92
2018-12-13T13:28:05.212Z,83.47
2018-12-13T13:31:11.091Z,82.88
2018-12-13T13:34:23.966Z,82.50
2018-12-13T13:37:32.849Z,82.39
2018-12-13T13:40:38.767Z,84.12
2018-12-13T13:43:44.663Z,84.74
2018-12-13T13:46:50.259Z,85.19
2018-12-13T13:49:56.169Z,85.56
2018-12-13T13:53:01.771Z,84.50
2018-12-13T13:56:07.639Z,85.49
2018-12-13T13:59:13.254Z,85.81
2018-12-13T14:02:19.441Z,85.01
2018-12-13T14:05:25.334Z,85.28
2018-12-13T14:08:31.242Z,86.92
2018-12-13T14:11:37.129Z,85.50
2018-12-13T14:14:44.292Z,85.85
2018-12-13T14:17:50.291Z,86.27
2018-12-13T14:20:56.164Z,85.79
2018-12-13T14:24:02.026Z,86.08
2018-12-13T14:27:07.937Z,85.52
2018-12-13T14:30:13.808Z,85.50
2018-12-13T14:33:19.973Z,85.22
2018-12-13T14:36:25.827Z,85.81
2018-12-13T14:39:32.493Z,85.60
2018-12-13T14:42:40.564Z,86.63
2018-12-13T14:45:46.154Z,87.39
2018-12-13T14:48:52.035Z,87.20
2018-12-13T14:51:57.599Z,87.34
2018-12-13T14:55:03.945Z,86.57
2018-12-13T14:58:09.873Z,85.66
2018-12-13T15:01:15.735Z,85.78
2018-12-13T15:04:21.634Z,86.00
2018-12-13T15:07:28.267Z,84.75
2018-12-13T15:10:34.106Z,85.22
2018-12-13T15:13:40.006Z,85.18
2018-12-13T15:16:45.706Z,84.47
2018-12-13T15:19:51.398Z,84.08
2018-12-13T15:22:57.027Z,85.91
2018-12-13T15:26:02.612Z,85.12
2018-12-13T15:29:09.312Z,84.95
2018-12-13T15:32:15.178Z,85.40
2018-12-13T15:35:21.298Z,85.27
2018-12-13T15:38:26.863Z,84.53
2018-12-13T15:41:32.725Z,84.62
2018-12-13T15:44:38.375Z,84.52
2018-12-13T15:47:43.957Z,84.98
2018-12-13T15:50:49.921Z,85.69
2018-12-13T15:53:55.862Z,85.51
2018-12-13T15:57:01.420Z,84.98
2018-12-13T16:00:09.894Z,87.00
2018-12-13T16:03:17.485Z,85.60
2018-12-13T16:06:23.369Z,86.13
2018-12-13T16:09:29.236Z,84.87
2018-12-13T16:12:35.698Z,83.35
2018-12-13T16:15:41.608Z,83.31
2018-12-13T16:18:48.860Z,84.01
2018-12-13T16:21:55.463Z,84.14
2018-12-13T16:25:02.278Z,83.25
2018-12-13T16:28:09.565Z,83.09
2018-12-13T16:31:16.413Z,81.57
2018-12-13T16:34:23.602Z,81.92
2018-12-13T16:37:30.843Z,82.16
2018-12-13T16:40:39.428Z,80.99
2018-12-13T16:43:47.369Z,79.92
2018-12-13T16:46:54.660Z,81.35
2018-12-13T16:50:00.727Z,81.41
2018-12-13T16:53:06.567Z,80.04
2018-12-13T16:56:13.173Z,80.10
2018-12-13T16:59:19.971Z,81.06
2018-12-13T17:02:25.831Z,82.26
2018-12-13T17:05:32.423Z,84.41
2018-12-13T17:08:38.987Z,85.26
2018-12-13T17:11:44.883Z,86.59
2018-12-13T17:14:50.760Z,87.10
2018-12-13T17:17:56.366Z,87.72
2018-12-13T17:21:02.248Z,88.40
2018-12-13T17:24:07.824Z,87.62
2018-12-13T17:27:13.920Z,86.82
2018-12-13T17:30:20.850Z,86.35
2018-12-13T17:33:26.781Z,86.60
2018-12-13T17:36:32.673Z,86.72
2018-12-13T17:39:38.538Z,84.88
2018-12-13T17:42:44.417Z,85.44
2018-12-13T17:45:50.076Z,84.85
2018-12-13T17:48:55.696Z,84.32
2018-12-13T17:52:06.874Z,85.39
2018-12-13T17:55:13.055Z,84.92
2018-12-13T17:58:19.255Z,84.95
2018-12-13T18:01:25.151Z,85.50
2018-12-13T18:04:31.041Z,83.71
2018-12-13T18:07:38.200Z,83.69
2018-12-13T18:10:43.812Z,83.67
2018-12-13T18:13:49.426Z,83.54
2018-12-13T18:16:55.511Z,84.73
2018-12-13T18:20:01.744Z,83.91
2018-12-13T18:23:08.266Z,82.99
2018-12-13T18:26:14.153Z,83.55
2018-12-13T18:29:20.010Z,83.25
2018-12-13T18:32:26.638Z,83.34
2018-12-13T18:35:32.504Z,82.23
2018-12-13T18:38:38.095Z,82.63
2018-12-13T18:41:44.282Z,80.65
2018-12-13T18:44:50.133Z,82.21
2018-12-13T18:47:56.014Z,81.86
2018-12-13T18:51:01.944Z,82.26
2018-12-13T18:54:07.812Z,82.99
2018-12-13T18:57:13.541Z,83.04
2018-12-13T19:00:19.131Z,82.67
2018-12-13T19:03:24.995Z,82.18
2018-12-13T19:06:30.595Z,83.26
2018-12-13T19:09:37.772Z,82.20
2018-12-13T19:12:45.303Z,82.90
2018-12-13T19:15:51.524Z,82.55
2018-12-13T19:18:57.959Z,81.31
2018-12-13T19:22:05.652Z,80.80
2018-12-13T19:25:12.116Z,82.97
2018-12-13T19:28:20.467Z,81.95
2018-12-13T19:31:27.597Z,81.62
2018-12-13T19:34:34.566Z,81.51
2018-12-13T19:37:41.638Z,82.64
2018-12-13T19:40:48.518Z,81.76
2018-12-13T19:43:57.811Z,82.58
2018-12-13T19:47:05.676Z,81.15
2018-12-13T19:50:11.930Z,81.13
2018-12-13T19:53:19.428Z,81.75
2018-12-13T19:56:27.013Z,81.52
2018-12-13T19:59:34.279Z,81.00
2018-12-13T20:02:40.252Z,80.60
2018-12-13T20:05:45.859Z,80.18
2018-12-13T20:08:51.814Z,79.52
2018-12-13T20:11:57.743Z,80.63
2018-12-13T20:15:04.337Z,79.83
2018-12-13T20:18:10.156Z,79.48
2018-12-13T20:21:16.187Z,79.71
2018-12-13T20:24:22.083Z,80.96
2018-12-13T20:27:28.061Z,80.65
2018-12-13T20:30:34.288Z,79.30
2018-12-13T20:33:40.349Z,79.19
2018-12-13T20:36:46.334Z,79.25
2018-12-13T20:39:53.300Z,80.42
2018-12-13T20:43:00.735Z,79.45
2018-12-13T20:46:07.514Z,78.90
2018-12-13T20:49:15.617Z,80.94
2018-12-13T20:52:22.791Z,79.08
2018-12-13T20:55:29.766Z,79.48
2018-12-13T20:58:37.692Z,80.05
2018-12-13T21:01:43.649Z,80.76
2018-12-13T21:04:49.784Z,78.24
2018-12-13T21:08:00.245Z,79.05
2018-12-13T21:11:07.633Z,79.78
2018-12-13T21:14:13.898Z,79.61
2018-12-13T21:17:19.491Z,79.71
2018-12-13T21:20:25.336Z,79.76
2018-12-13T21:23:31.213Z,80.32
2018-12-13T21:26:36.872Z,78.72
2018-12-13T21:29:42.724Z,78.98
2018-12-13T21:32:48.361Z,79.46
2018-12-13T21:35:54.439Z,80.24
2018-12-13T21:39:00.360Z,79.89
2018-12-13T21:42:06.884Z,80.17
2018-12-13T21:45:13.192Z,80.23
2018-12-13T21:48:19.078Z,79.99
2018-12-13T21:51:24.651Z,79.95
2018-12-13T21:54:37.553Z,79.84
2018-12-13T21:57:43.155Z,81.00
2018-12-13T22:00:49.055Z,80.98
2018-12-13T22:03:54.658Z,80.79
2018-12-13T22:07:00.527Z,81.06
2018-12-13T22:10:07.913Z,82.65
2018-12-13T22:13:14.838Z,81.30
2018-12-13T22:16:20.892Z,82.19
2018-12-13T22:19:26.810Z,81.18
2018-12-13T22:22:33.763Z,82.32
2018-12-13T22:25:39.631Z,82.10
2018-12-13T22:28:45.848Z,82.12
2018-12-13T22:31:52.313Z,82.43
2018-12-13T22:34:57.918Z,82.58
2018-12-13T22:38:04.052Z,83.12
2018-12-13T22:41:10.251Z,81.97
2018-12-13T22:44:16.150Z,82.71
2018-12-13T22:47:21.761Z,81.75
2018-12-13T22:50:28.147Z,81.90
2018-12-13T22:53:35.026Z,82.57
2018-12-13T22:56:40.913Z,82.98
2018-12-13T22:59:46.788Z,82.67
2018-12-13T23:02:52.387Z,83.09
2018-12-13T23:05:58.250Z,80.04
2018-12-13T23:09:07.745Z,79.18
2018-12-13T23:12:15.661Z,80.45
2018-12-13T23:15:21.260Z,79.62
2018-12-13T23:18:27.143Z,80.22
2018-12-13T23:21:32.707Z,80.40
2018-12-13T23:24:38.595Z,79.63
2018-12-13T23:27:44.899Z,79.15
2018-12-13T23:30:50.776Z,80.34
2018-12-13T23:33:56.647Z,80.27
2018-12-13T23:37:02.258Z,81.05
2018-12-13T23:40:08.914Z,80.53
2018-12-13T23:43:14.785Z,80.88
2018-12-13T23:46:20.352Z,80.96
2018-12-13T23:49:26.243Z,80.21
2018-12-13T23:52:31.835Z,80.01
2018-12-13T23:55:38.171Z,80.14
2018-12-13T23:58:44.675Z,80.06
